sensor_id;sensor_type;location;lat;lon;timestamp;P1;durP1;ratioP1;P2;durP2;ratioP2
5133;SDS011;2585;48.696;10.066;2022-07-01T00:00:50;1.57;;;1.47;;
5133;SDS011;2585;48.696;10.066;2022-07-01T00:03:17;3.33;;;1.60;;
5133;SDS011;2585;48.696;10.066;2022-07-01T00:05:44;1.50;;;1.33;;
5133;SDS011;2585;48.696;10.066;2022-07-01T00:08:11;1.40;;;1.30;;
5133;SDS011;2585;48.696;10.066;2022-07-01T00:10:38;3.17;;;1.47;;
5133;SDS011;2585;48.696;10.066;2022-07-01T00:13:04;1.87;;;1.20;;
5133;SDS011;2585;48.696;10.066;2022-07-01T00:15:32;1.30;;;1.20;;
5133;SDS011;2585;48.696;10.066;2022-07-01T00:17:59;2.27;;;1.30;;
5133;SDS011;2585;48.696;10.066;2022-07-01T00:20:26;1.50;;;1.17;;
5133;SDS011;2585;48.696;10.066;2022-07-01T00:22:53;2.10;;;1.60;;
5133;SDS011;2585;48.696;10.066;2022-07-01T00:25:20;1.80;;;1.20;;
5133;SDS011;2585;48.696;10.066;2022-07-01T00:27:47;1.50;;;1.40;;
5133;SDS011;2585;48.696;10.066;2022-07-01T00:30:14;1.63;;;1.30;;
5133;SDS011;2585;48.696;10.066;2022-07-01T00:32:41;2.50;;;1.27;;
5133;SDS011;2585;48.696;10.066;2022-07-01T00:35:08;1.60;;;1.50;;
5133;SDS011;2585;48.696;10.066;2022-07-01T00:37:35;1.60;;;1.50;;
5133;SDS011;2585;48.696;10.066;2022-07-01T00:40:05;2.00;;;1.80;;
5133;SDS011;2585;48.696;10.066;2022-07-01T00:42:32;1.80;;;1.70;;
5133;SDS011;2585;48.696;10.066;2022-07-01T00:44:59;3.50;;;1.93;;
5133;SDS011;2585;48.696;10.066;2022-07-01T00:47:26;2.23;;;1.97;;
5133;SDS011;2585;48.696;10.066;2022-07-01T00:49:53;1.90;;;1.40;;
5133;SDS011;2585;48.696;10.066;2022-07-01T00:52:20;1.53;;;1.43;;
5133;SDS011;2585;48.696;10.066;2022-07-01T00:54:52;2.43;;;1.70;;
5133;SDS011;2585;48.696;10.066;2022-07-01T00:57:21;2.40;;;1.70;;
5133;SDS011;2585;48.696;10.066;2022-07-01T00:59:48;1.83;;;1.40;;
5133;SDS011;2585;48.696;10.066;2022-07-01T01:02:15;1.57;;;1.47;;
5133;SDS011;2585;48.696;10.066;2022-07-01T01:04:41;1.73;;;1.20;;
5133;SDS011;2585;48.696;10.066;2022-07-01T01:07:08;2.97;;;1.60;;
5133;SDS011;2585;48.696;10.066;2022-07-01T01:09:35;1.30;;;1.20;;
5133;SDS011;2585;48.696;10.066;2022-07-01T01:12:02;1.20;;;1.10;;
5133;SDS011;2585;48.696;10.066;2022-07-01T01:14:29;2.37;;;1.93;;
5133;SDS011;2585;48.696;10.066;2022-07-01T01:16:56;1.63;;;1.40;;
5133;SDS011;2585;48.696;10.066;2022-07-01T01:19:23;1.37;;;1.23;;
5133;SDS011;2585;48.696;10.066;2022-07-01T01:21:49;1.27;;;1.17;;
5133;SDS011;2585;48.696;10.066;2022-07-01T01:24:16;1.93;;;1.17;;
5133;SDS011;2585;48.696;10.066;2022-07-01T01:26:44;2.40;;;1.80;;
5133;SDS011;2585;48.696;10.066;2022-07-01T01:29:11;1.50;;;1.40;;
5133;SDS011;2585;48.696;10.066;2022-07-01T01:31:37;1.40;;;1.13;;
5133;SDS011;2585;48.696;10.066;2022-07-01T01:34:04;1.70;;;1.40;;
5133;SDS011;2585;48.696;10.066;2022-07-01T01:36:31;1.63;;;1.30;;
5133;SDS011;2585;48.696;10.066;2022-07-01T01:38:58;3.70;;;1.40;;
5133;SDS011;2585;48.696;10.066;2022-07-01T01:41:35;1.10;;;1.00;;
5133;SDS011;2585;48.696;10.066;2022-07-01T01:44:01;1.43;;;1.23;;
5133;SDS011;2585;48.696;10.066;2022-07-01T01:46:28;1.83;;;1.30;;
5133;SDS011;2585;48.696;10.066;2022-07-01T01:48:57;2.13;;;1.40;;
5133;SDS011;2585;48.696;10.066;2022-07-01T01:51:24;2.93;;;1.70;;
5133;SDS011;2585;48.696;10.066;2022-07-01T01:53:51;3.50;;;1.40;;
5133;SDS011;2585;48.696;10.066;2022-07-01T01:56:17;1.57;;;1.30;;
5133;SDS011;2585;48.696;10.066;2022-07-01T01:58:45;1.30;;;1.20;;
5133;SDS011;2585;48.696;10.066;2022-07-01T02:01:12;1.60;;;1.50;;
5133;SDS011;2585;48.696;10.066;2022-07-01T02:03:39;1.57;;;1.10;;
5133;SDS011;2585;48.696;10.066;2022-07-01T02:06:09;1.20;;;1.03;;
5133;SDS011;2585;48.696;10.066;2022-07-01T02:08:37;1.30;;;1.20;;
5133;SDS011;2585;48.696;10.066;2022-07-01T02:11:05;1.10;;;1.00;;
5133;SDS011;2585;48.696;10.066;2022-07-01T02:13:32;2.40;;;1.23;;
5133;SDS011;2585;48.696;10.066;2022-07-01T02:15:59;1.20;;;1.10;;
5133;SDS011;2585;48.696;10.066;2022-07-01T02:18:26;1.10;;;1.00;;
5133;SDS011;2585;48.696;10.066;2022-07-01T02:20:54;3.10;;;1.20;;
5133;SDS011;2585;48.696;10.066;2022-07-01T02:23:21;1.40;;;1.00;;
5133;SDS011;2585;48.696;10.066;2022-07-01T02:25:48;1.10;;;1.00;;
5133;SDS011;2585;48.696;10.066;2022-07-01T02:28:15;1.10;;;1.00;;
5133;SDS011;2585;48.696;10.066;2022-07-01T02:30:42;1.10;;;1.00;;
5133;SDS011;2585;48.696;10.066;2022-07-01T02:33:09;2.13;;;1.10;;
5133;SDS011;2585;48.696;10.066;2022-07-01T02:35:37;1.20;;;1.00;;
5133;SDS011;2585;48.696;10.066;2022-07-01T02:38:08;2.00;;;0.90;;
5133;SDS011;2585;48.696;10.066;2022-07-01T02:40:35;1.10;;;0.90;;
5133;SDS011;2585;48.696;10.066;2022-07-01T02:43:06;1.00;;;0.90;;
5133;SDS011;2585;48.696;10.066;2022-07-01T02:45:33;1.00;;;0.90;;
5133;SDS011;2585;48.696;10.066;2022-07-01T02:48:01;2.20;;;1.33;;
5133;SDS011;2585;48.696;10.066;2022-07-01T02:50:28;1.20;;;1.10;;
5133;SDS011;2585;48.696;10.066;2022-07-01T02:52:56;1.30;;;1.20;;
5133;SDS011;2585;48.696;10.066;2022-07-01T02:55:23;1.70;;;1.10;;
5133;SDS011;2585;48.696;10.066;2022-07-01T02:57:50;1.10;;;1.00;;
5133;SDS011;2585;48.696;10.066;2022-07-01T03:00:18;1.20;;;1.10;;
5133;SDS011;2585;48.696;10.066;2022-07-01T03:02:46;1.43;;;1.20;;
5133;SDS011;2585;48.696;10.066;2022-07-01T03:05:14;2.60;;;1.70;;
5133;SDS011;2585;48.696;10.066;2022-07-01T03:07:41;1.57;;;1.17;;
5133;SDS011;2585;48.696;10.066;2022-07-01T03:10:08;1.37;;;1.27;;
5133;SDS011;2585;48.696;10.066;2022-07-01T03:12:36;1.37;;;1.20;;
5133;SDS011;2585;48.696;10.066;2022-07-01T03:15:12;1.20;;;1.10;;
5133;SDS011;2585;48.696;10.066;2022-07-01T03:17:41;1.80;;;1.07;;
5133;SDS011;2585;48.696;10.066;2022-07-01T03:20:09;2.47;;;1.20;;
5133;SDS011;2585;48.696;10.066;2022-07-01T03:22:38;1.20;;;1.10;;
5133;SDS011;2585;48.696;10.066;2022-07-01T03:25:05;1.10;;;1.00;;
5133;SDS011;2585;48.696;10.066;2022-07-01T03:27:33;1.60;;;1.40;;
5133;SDS011;2585;48.696;10.066;2022-07-01T03:30:00;1.10;;;1.00;;
5133;SDS011;2585;48.696;10.066;2022-07-01T03:32:28;1.20;;;1.10;;
5133;SDS011;2585;48.696;10.066;2022-07-01T03:34:55;1.20;;;1.10;;
5133;SDS011;2585;48.696;10.066;2022-07-01T03:37:22;1.87;;;1.20;;
5133;SDS011;2585;48.696;10.066;2022-07-01T03:39:49;1.30;;;1.10;;
5133;SDS011;2585;48.696;10.066;2022-07-01T03:42:17;2.40;;;1.10;;
5133;SDS011;2585;48.696;10.066;2022-07-01T03:44:44;1.77;;;1.20;;
5133;SDS011;2585;48.696;10.066;2022-07-01T03:47:11;4.17;;;1.10;;
5133;SDS011;2585;48.696;10.066;2022-07-01T03:49:38;3.00;;;1.20;;
5133;SDS011;2585;48.696;10.066;2022-07-01T03:52:05;1.80;;;1.07;;
5133;SDS011;2585;48.696;10.066;2022-07-01T03:54:32;1.90;;;1.07;;
5133;SDS011;2585;48.696;10.066;2022-07-01T03:57:05;1.20;;;1.10;;
5133;SDS011;2585;48.696;10.066;2022-07-01T03:59:39;0.83;;;0.83;;
5133;SDS011;2585;48.696;10.066;2022-07-01T04:02:07;1.20;;;0.90;;
5133;SDS011;2585;48.696;10.066;2022-07-01T04:04:34;0.97;;;0.87;;
5133;SDS011;2585;48.696;10.066;2022-07-01T04:07:03;1.73;;;1.10;;
5133;SDS011;2585;48.696;10.066;2022-07-01T04:09:32;1.13;;;1.00;;
5133;SDS011;2585;48.696;10.066;2022-07-01T04:11:59;2.27;;;1.20;;
5133;SDS011;2585;48.696;10.066;2022-07-01T04:14:26;1.13;;;1.03;;
5133;SDS011;2585;48.696;10.066;2022-07-01T04:16:53;1.20;;;1.00;;
5133;SDS011;2585;48.696;10.066;2022-07-01T04:19:20;1.60;;;1.10;;
5133;SDS011;2585;48.696;10.066;2022-07-01T04:21:47;1.27;;;1.10;;
5133;SDS011;2585;48.696;10.066;2022-07-01T04:24:33;1.23;;;1.13;;
5133;SDS011;2585;48.696;10.066;2022-07-01T04:27:00;1.27;;;1.17;;
5133;SDS011;2585;48.696;10.066;2022-07-01T04:29:27;1.20;;;1.10;;
5133;SDS011;2585;48.696;10.066;2022-07-01T04:31:56;1.40;;;1.30;;
5133;SDS011;2585;48.696;10.066;2022-07-01T04:34:24;1.60;;;1.50;;
5133;SDS011;2585;48.696;10.066;2022-07-01T04:36:51;1.23;;;1.13;;
5133;SDS011;2585;48.696;10.066;2022-07-01T04:39:18;1.33;;;1.10;;
5133;SDS011;2585;48.696;10.066;2022-07-01T04:41:45;1.67;;;1.37;;
5133;SDS011;2585;48.696;10.066;2022-07-01T04:44:31;1.70;;;1.50;;
5133;SDS011;2585;48.696;10.066;2022-07-01T04:46:59;1.40;;;1.30;;
5133;SDS011;2585;48.696;10.066;2022-07-01T04:49:27;1.83;;;1.73;;
5133;SDS011;2585;48.696;10.066;2022-07-01T04:51:55;2.47;;;1.63;;
5133;SDS011;2585;48.696;10.066;2022-07-01T04:54:22;3.60;;;1.90;;
5133;SDS011;2585;48.696;10.066;2022-07-01T04:56:49;1.60;;;1.50;;
5133;SDS011;2585;48.696;10.066;2022-07-01T04:59:17;2.53;;;1.90;;
5133;SDS011;2585;48.696;10.066;2022-07-01T05:01:46;1.80;;;1.70;;
5133;SDS011;2585;48.696;10.066;2022-07-01T05:04:19;2.20;;;2.00;;
5133;SDS011;2585;48.696;10.066;2022-07-01T05:06:46;1.97;;;1.80;;
5133;SDS011;2585;48.696;10.066;2022-07-01T05:09:13;1.97;;;1.77;;
5133;SDS011;2585;48.696;10.066;2022-07-01T05:11:40;1.90;;;1.80;;
5133;SDS011;2585;48.696;10.066;2022-07-01T05:14:07;2.30;;;1.90;;
5133;SDS011;2585;48.696;10.066;2022-07-01T05:16:34;1.30;;;1.20;;
5133;SDS011;2585;48.696;10.066;2022-07-01T05:19:02;2.50;;;1.57;;
5133;SDS011;2585;48.696;10.066;2022-07-01T05:21:48;2.27;;;1.70;;
5133;SDS011;2585;48.696;10.066;2022-07-01T05:24:28;1.90;;;1.73;;
5133;SDS011;2585;48.696;10.066;2022-07-01T05:26:57;1.80;;;1.70;;
5133;SDS011;2585;48.696;10.066;2022-07-01T05:29:25;1.70;;;1.60;;
5133;SDS011;2585;48.696;10.066;2022-07-01T05:31:52;2.43;;;2.10;;
5133;SDS011;2585;48.696;10.066;2022-07-01T05:34:19;3.40;;;2.10;;
5133;SDS011;2585;48.696;10.066;2022-07-01T05:36:46;2.60;;;2.23;;
5133;SDS011;2585;48.696;10.066;2022-07-01T05:39:13;2.03;;;1.80;;
5133;SDS011;2585;48.696;10.066;2022-07-01T05:41:40;4.53;;;2.47;;
5133;SDS011;2585;48.696;10.066;2022-07-01T05:44:07;2.17;;;2.07;;
5133;SDS011;2585;48.696;10.066;2022-07-01T05:46:34;2.40;;;2.20;;
5133;SDS011;2585;48.696;10.066;2022-07-01T05:49:02;2.47;;;1.93;;
5133;SDS011;2585;48.696;10.066;2022-07-01T05:51:29;4.43;;;2.00;;
5133;SDS011;2585;48.696;10.066;2022-07-01T05:53:57;3.20;;;2.20;;
5133;SDS011;2585;48.696;10.066;2022-07-01T05:56:24;2.30;;;2.10;;
5133;SDS011;2585;48.696;10.066;2022-07-01T05:58:52;2.13;;;2.03;;
5133;SDS011;2585;48.696;10.066;2022-07-01T06:01:20;2.93;;;2.57;;
5133;SDS011;2585;48.696;10.066;2022-07-01T06:03:47;3.33;;;2.67;;
5133;SDS011;2585;48.696;10.066;2022-07-01T06:06:14;1.93;;;1.83;;
5133;SDS011;2585;48.696;10.066;2022-07-01T06:08:41;2.17;;;2.07;;
5133;SDS011;2585;48.696;10.066;2022-07-01T06:11:07;2.20;;;2.10;;
5133;SDS011;2585;48.696;10.066;2022-07-01T06:13:34;2.27;;;1.87;;
5133;SDS011;2585;48.696;10.066;2022-07-01T06:16:01;2.23;;;2.00;;
5133;SDS011;2585;48.696;10.066;2022-07-01T06:18:29;3.30;;;1.83;;
5133;SDS011;2585;48.696;10.066;2022-07-01T06:20:56;5.80;;;2.03;;
5133;SDS011;2585;48.696;10.066;2022-07-01T06:23:23;2.00;;;1.90;;
5133;SDS011;2585;48.696;10.066;2022-07-01T06:25:49;1.80;;;1.70;;
5133;SDS011;2585;48.696;10.066;2022-07-01T06:28:16;2.40;;;1.97;;
5133;SDS011;2585;48.696;10.066;2022-07-01T06:30:43;2.23;;;2.03;;
5133;SDS011;2585;48.696;10.066;2022-07-01T06:33:11;3.90;;;1.70;;
5133;SDS011;2585;48.696;10.066;2022-07-01T06:35:39;1.83;;;1.73;;
5133;SDS011;2585;48.696;10.066;2022-07-01T06:38:06;2.40;;;2.10;;
5133;SDS011;2585;48.696;10.066;2022-07-01T06:40:33;4.03;;;2.23;;
5133;SDS011;2585;48.696;10.066;2022-07-01T06:43:00;2.83;;;1.90;;
5133;SDS011;2585;48.696;10.066;2022-07-01T06:45:27;2.13;;;1.93;;
5133;SDS011;2585;48.696;10.066;2022-07-01T06:47:54;1.90;;;1.80;;
5133;SDS011;2585;48.696;10.066;2022-07-01T06:50:21;2.30;;;2.10;;
5133;SDS011;2585;48.696;10.066;2022-07-01T06:52:48;3.33;;;2.33;;
5133;SDS011;2585;48.696;10.066;2022-07-01T06:55:15;4.13;;;2.70;;
5133;SDS011;2585;48.696;10.066;2022-07-01T06:57:42;2.77;;;1.90;;
5133;SDS011;2585;48.696;10.066;2022-07-01T07:00:09;2.10;;;1.90;;
5133;SDS011;2585;48.696;10.066;2022-07-01T07:02:36;3.77;;;1.83;;
5133;SDS011;2585;48.696;10.066;2022-07-01T07:05:03;2.40;;;2.00;;
5133;SDS011;2585;48.696;10.066;2022-07-01T07:07:31;1.87;;;1.73;;
5133;SDS011;2585;48.696;10.066;2022-07-01T07:09:57;2.60;;;2.40;;
5133;SDS011;2585;48.696;10.066;2022-07-01T07:12:24;2.03;;;1.83;;
5133;SDS011;2585;48.696;10.066;2022-07-01T07:14:51;3.63;;;1.80;;
5133;SDS011;2585;48.696;10.066;2022-07-01T07:17:18;3.90;;;2.30;;
5133;SDS011;2585;48.696;10.066;2022-07-01T07:19:45;2.47;;;2.23;;
5133;SDS011;2585;48.696;10.066;2022-07-01T07:22:12;2.30;;;2.10;;
5133;SDS011;2585;48.696;10.066;2022-07-01T07:24:39;1.80;;;1.70;;
5133;SDS011;2585;48.696;10.066;2022-07-01T07:27:07;2.30;;;2.20;;
5133;SDS011;2585;48.696;10.066;2022-07-01T07:29:33;2.27;;;2.07;;
5133;SDS011;2585;48.696;10.066;2022-07-01T07:32:00;1.77;;;1.63;;
5133;SDS011;2585;48.696;10.066;2022-07-01T07:34:27;1.70;;;1.60;;
5133;SDS011;2585;48.696;10.066;2022-07-01T07:36:54;2.53;;;2.13;;
5133;SDS011;2585;48.696;10.066;2022-07-01T07:39:21;3.03;;;2.60;;
5133;SDS011;2585;48.696;10.066;2022-07-01T07:41:48;3.17;;;1.57;;
5133;SDS011;2585;48.696;10.066;2022-07-01T07:44:16;3.73;;;1.70;;
5133;SDS011;2585;48.696;10.066;2022-07-01T07:46:42;2.20;;;2.00;;
5133;SDS011;2585;48.696;10.066;2022-07-01T07:49:09;3.30;;;1.80;;
5133;SDS011;2585;48.696;10.066;2022-07-01T07:51:36;2.70;;;2.03;;
5133;SDS011;2585;48.696;10.066;2022-07-01T07:54:03;2.50;;;2.10;;
5133;SDS011;2585;48.696;10.066;2022-07-01T07:56:30;3.50;;;1.90;;
5133;SDS011;2585;48.696;10.066;2022-07-01T07:58:57;1.90;;;1.80;;
5133;SDS011;2585;48.696;10.066;2022-07-01T08:01:25;1.73;;;1.63;;
5133;SDS011;2585;48.696;10.066;2022-07-01T08:03:52;2.50;;;1.80;;
5133;SDS011;2585;48.696;10.066;2022-07-01T08:06:19;1.87;;;1.30;;
5133;SDS011;2585;48.696;10.066;2022-07-01T08:08:46;3.83;;;1.77;;
5133;SDS011;2585;48.696;10.066;2022-07-01T08:11:13;1.47;;;1.37;;
5133;SDS011;2585;48.696;10.066;2022-07-01T08:13:40;1.40;;;1.30;;
5133;SDS011;2585;48.696;10.066;2022-07-01T08:16:07;2.23;;;1.53;;
5133;SDS011;2585;48.696;10.066;2022-07-01T08:18:35;3.07;;;1.63;;
5133;SDS011;2585;48.696;10.066;2022-07-01T08:21:02;1.40;;;1.30;;
5133;SDS011;2585;48.696;10.066;2022-07-01T08:23:30;1.17;;;1.07;;
5133;SDS011;2585;48.696;10.066;2022-07-01T08:25:56;1.30;;;1.20;;
5133;SDS011;2585;48.696;10.066;2022-07-01T08:28:23;1.30;;;1.20;;
5133;SDS011;2585;48.696;10.066;2022-07-01T08:30:50;1.40;;;1.00;;
5133;SDS011;2585;48.696;10.066;2022-07-01T08:33:17;1.20;;;1.10;;
5133;SDS011;2585;48.696;10.066;2022-07-01T08:35:44;1.10;;;1.00;;
5133;SDS011;2585;48.696;10.066;2022-07-01T08:38:11;2.47;;;1.10;;
5133;SDS011;2585;48.696;10.066;2022-07-01T08:40:39;1.40;;;1.10;;
5133;SDS011;2585;48.696;10.066;2022-07-01T08:43:07;1.63;;;1.30;;
5133;SDS011;2585;48.696;10.066;2022-07-01T08:45:34;2.70;;;1.20;;
5133;SDS011;2585;48.696;10.066;2022-07-01T08:48:02;1.47;;;1.37;;
5133;SDS011;2585;48.696;10.066;2022-07-01T08:50:30;1.20;;;1.10;;
5133;SDS011;2585;48.696;10.066;2022-07-01T08:53:02;1.23;;;1.03;;
5133;SDS011;2585;48.696;10.066;2022-07-01T08:55:29;1.13;;;0.90;;
5133;SDS011;2585;48.696;10.066;2022-07-01T08:57:57;3.10;;;1.10;;
5133;SDS011;2585;48.696;10.066;2022-07-01T09:00:30;5.90;;;1.17;;
5133;SDS011;2585;48.696;10.066;2022-07-01T09:02:59;1.20;;;1.10;;
5133;SDS011;2585;48.696;10.066;2022-07-01T09:05:28;1.30;;;1.20;;
5133;SDS011;2585;48.696;10.066;2022-07-01T09:07:57;2.20;;;1.40;;
5133;SDS011;2585;48.696;10.066;2022-07-01T09:10:26;1.77;;;1.20;;
5133;SDS011;2585;48.696;10.066;2022-07-01T09:12:54;1.40;;;1.20;;
5133;SDS011;2585;48.696;10.066;2022-07-01T09:15:21;2.80;;;1.40;;
5133;SDS011;2585;48.696;10.066;2022-07-01T09:17:54;1.20;;;1.10;;
5133;SDS011;2585;48.696;10.066;2022-07-01T09:20:32;1.50;;;1.40;;
5133;SDS011;2585;48.696;10.066;2022-07-01T09:23:07;1.20;;;1.10;;
5133;SDS011;2585;48.696;10.066;2022-07-01T09:25:49;2.30;;;1.37;;
5133;SDS011;2585;48.696;10.066;2022-07-01T09:28:22;2.03;;;1.30;;
5133;SDS011;2585;48.696;10.066;2022-07-01T09:30:56;1.50;;;1.30;;
5133;SDS011;2585;48.696;10.066;2022-07-01T09:33:25;1.23;;;1.10;;
5133;SDS011;2585;48.696;10.066;2022-07-01T09:35:54;1.20;;;1.10;;
5133;SDS011;2585;48.696;10.066;2022-07-01T09:38:22;1.27;;;1.10;;
5133;SDS011;2585;48.696;10.066;2022-07-01T09:41:02;1.47;;;1.10;;
5133;SDS011;2585;48.696;10.066;2022-07-01T09:43:31;2.03;;;1.40;;
5133;SDS011;2585;48.696;10.066;2022-07-01T09:46:06;1.40;;;1.30;;
5133;SDS011;2585;48.696;10.066;2022-07-01T09:51:05;1.67;;;1.20;;
5133;SDS011;2585;48.696;10.066;2022-07-01T09:53:40;1.93;;;1.30;;
5133;SDS011;2585;48.696;10.066;2022-07-01T09:56:09;3.00;;;1.73;;
5133;SDS011;2585;48.696;10.066;2022-07-01T09:58:35;1.30;;;1.13;;
5133;SDS011;2585;48.696;10.066;2022-07-01T10:01:05;1.87;;;1.13;;
5133;SDS011;2585;48.696;10.066;2022-07-01T10:03:36;6.23;;;1.20;;
5133;SDS011;2585;48.696;10.066;2022-07-01T10:14:27;3.10;;;2.03;;
5133;SDS011;2585;48.696;10.066;2022-07-01T10:16:56;2.00;;;1.53;;
5133;SDS011;2585;48.696;10.066;2022-07-01T10:21:53;1.10;;;1.00;;
5133;SDS011;2585;48.696;10.066;2022-07-01T10:24:24;2.10;;;1.27;;
5133;SDS011;2585;48.696;10.066;2022-07-01T10:26:52;1.10;;;1.00;;
5133;SDS011;2585;48.696;10.066;2022-07-01T10:32:07;1.57;;;1.10;;
5133;SDS011;2585;48.696;10.066;2022-07-01T10:35:12;1.50;;;1.27;;
5133;SDS011;2585;48.696;10.066;2022-07-01T10:38:01;1.87;;;1.10;;
5133;SDS011;2585;48.696;10.066;2022-07-01T10:40:42;1.43;;;1.10;;
5133;SDS011;2585;48.696;10.066;2022-07-01T10:43:14;1.27;;;0.90;;
5133;SDS011;2585;48.696;10.066;2022-07-01T10:45:49;1.13;;;1.03;;
5133;SDS011;2585;48.696;10.066;2022-07-01T10:48:22;1.30;;;1.07;;
5133;SDS011;2585;48.696;10.066;2022-07-01T10:50:50;1.30;;;1.20;;
5133;SDS011;2585;48.696;10.066;2022-07-01T10:53:18;1.00;;;0.90;;
5133;SDS011;2585;48.696;10.066;2022-07-01T10:55:47;1.13;;;1.03;;
5133;SDS011;2585;48.696;10.066;2022-07-01T10:58:35;1.60;;;1.13;;
5133;SDS011;2585;48.696;10.066;2022-07-01T11:01:03;1.13;;;1.00;;
5133;SDS011;2585;48.696;10.066;2022-07-01T11:03:34;2.50;;;0.97;;
5133;SDS011;2585;48.696;10.066;2022-07-01T11:06:03;2.30;;;1.17;;
5133;SDS011;2585;48.696;10.066;2022-07-01T11:08:30;1.90;;;1.20;;
5133;SDS011;2585;48.696;10.066;2022-07-01T11:10:58;1.77;;;1.53;;
5133;SDS011;2585;48.696;10.066;2022-07-01T11:13:29;2.80;;;1.40;;
5133;SDS011;2585;48.696;10.066;2022-07-01T11:15:56;1.60;;;1.40;;
5133;SDS011;2585;48.696;10.066;2022-07-01T11:18:24;1.60;;;1.10;;
5133;SDS011;2585;48.696;10.066;2022-07-01T11:20:51;2.70;;;1.60;;
5133;SDS011;2585;48.696;10.066;2022-07-01T11:23:20;5.90;;;1.73;;
5133;SDS011;2585;48.696;10.066;2022-07-01T11:25:47;1.37;;;1.27;;
5133;SDS011;2585;48.696;10.066;2022-07-01T11:28:14;1.50;;;1.40;;
5133;SDS011;2585;48.696;10.066;2022-07-01T11:30:41;1.70;;;1.50;;
5133;SDS011;2585;48.696;10.066;2022-07-01T11:33:08;2.40;;;1.50;;
5133;SDS011;2585;48.696;10.066;2022-07-01T11:35:36;2.50;;;1.30;;
5133;SDS011;2585;48.696;10.066;2022-07-01T11:38:25;2.27;;;1.37;;
5133;SDS011;2585;48.696;10.066;2022-07-01T11:41:18;1.87;;;1.77;;
5133;SDS011;2585;48.696;10.066;2022-07-01T11:43:46;2.03;;;1.27;;
5133;SDS011;2585;48.696;10.066;2022-07-01T11:46:13;3.03;;;1.40;;
5133;SDS011;2585;48.696;10.066;2022-07-01T11:51:10;1.57;;;1.40;;
5133;SDS011;2585;48.696;10.066;2022-07-01T11:53:43;1.60;;;1.27;;
5133;SDS011;2585;48.696;10.066;2022-07-01T11:56:12;1.40;;;1.30;;
5133;SDS011;2585;48.696;10.066;2022-07-01T12:01:50;1.53;;;1.30;;
5133;SDS011;2585;48.696;10.066;2022-07-01T12:04:16;2.63;;;1.30;;
5133;SDS011;2585;48.696;10.066;2022-07-01T12:06:43;1.90;;;1.43;;
5133;SDS011;2585;48.696;10.066;2022-07-01T12:09:15;1.70;;;1.60;;
5133;SDS011;2585;48.696;10.066;2022-07-01T12:11:45;1.50;;;1.23;;
5133;SDS011;2585;48.696;10.066;2022-07-01T12:14:19;2.70;;;1.27;;
5133;SDS011;2585;48.696;10.066;2022-07-01T12:16:52;3.17;;;1.40;;
5133;SDS011;2585;48.696;10.066;2022-07-01T12:19:25;1.60;;;1.17;;
5133;SDS011;2585;48.696;10.066;2022-07-01T12:22:17;3.63;;;1.37;;
5133;SDS011;2585;48.696;10.066;2022-07-01T12:24:49;1.73;;;1.30;;
5133;SDS011;2585;48.696;10.066;2022-07-01T12:27:19;2.30;;;1.67;;
5133;SDS011;2585;48.696;10.066;2022-07-01T12:32:18;1.23;;;1.13;;
5133;SDS011;2585;48.696;10.066;2022-07-01T12:34:56;2.13;;;1.40;;
5133;SDS011;2585;48.696;10.066;2022-07-01T12:45:03;1.80;;;1.60;;
5133;SDS011;2585;48.696;10.066;2022-07-01T12:47:35;1.40;;;1.10;;
5133;SDS011;2585;48.696;10.066;2022-07-01T12:58:10;1.40;;;1.30;;
5133;SDS011;2585;48.696;10.066;2022-07-01T13:00:43;1.57;;;1.20;;
5133;SDS011;2585;48.696;10.066;2022-07-01T13:03:12;3.17;;;1.53;;
5133;SDS011;2585;48.696;10.066;2022-07-01T13:05:39;1.20;;;1.10;;
5133;SDS011;2585;48.696;10.066;2022-07-01T13:08:07;2.57;;;1.63;;
5133;SDS011;2585;48.696;10.066;2022-07-01T13:10:36;1.40;;;1.07;;
5133;SDS011;2585;48.696;10.066;2022-07-01T13:13:04;2.33;;;1.20;;
5133;SDS011;2585;48.696;10.066;2022-07-01T13:15:31;1.67;;;1.07;;
5133;SDS011;2585;48.696;10.066;2022-07-01T13:17:58;1.83;;;1.50;;
5133;SDS011;2585;48.696;10.066;2022-07-01T13:20:25;2.60;;;1.23;;
5133;SDS011;2585;48.696;10.066;2022-07-01T13:22:53;1.63;;;1.13;;
5133;SDS011;2585;48.696;10.066;2022-07-01T13:25:20;2.63;;;1.60;;
5133;SDS011;2585;48.696;10.066;2022-07-01T13:27:46;2.33;;;1.20;;
5133;SDS011;2585;48.696;10.066;2022-07-01T13:30:14;1.20;;;1.10;;
5133;SDS011;2585;48.696;10.066;2022-07-01T13:32:42;1.27;;;1.17;;
5133;SDS011;2585;48.696;10.066;2022-07-01T13:35:10;1.50;;;1.40;;
5133;SDS011;2585;48.696;10.066;2022-07-01T13:37:38;1.30;;;1.20;;
5133;SDS011;2585;48.696;10.066;2022-07-01T13:40:06;1.20;;;1.10;;
5133;SDS011;2585;48.696;10.066;2022-07-01T13:42:33;1.20;;;1.10;;
5133;SDS011;2585;48.696;10.066;2022-07-01T13:45:00;2.07;;;1.33;;
5133;SDS011;2585;48.696;10.066;2022-07-01T13:47:28;2.37;;;1.57;;
5133;SDS011;2585;48.696;10.066;2022-07-01T13:49:55;3.37;;;1.27;;
5133;SDS011;2585;48.696;10.066;2022-07-01T13:52:22;5.73;;;1.97;;
5133;SDS011;2585;48.696;10.066;2022-07-01T13:54:49;1.80;;;1.60;;
5133;SDS011;2585;48.696;10.066;2022-07-01T13:57:17;2.13;;;1.33;;
5133;SDS011;2585;48.696;10.066;2022-07-01T13:59:44;1.60;;;1.20;;
5133;SDS011;2585;48.696;10.066;2022-07-01T14:02:12;1.53;;;1.10;;
5133;SDS011;2585;48.696;10.066;2022-07-01T14:15:20;1.23;;;1.03;;
5133;SDS011;2585;48.696;10.066;2022-07-01T14:17:47;1.37;;;1.10;;
5133;SDS011;2585;48.696;10.066;2022-07-01T14:20:14;2.20;;;1.07;;
5133;SDS011;2585;48.696;10.066;2022-07-01T14:22:40;1.77;;;1.20;;
5133;SDS011;2585;48.696;10.066;2022-07-01T14:25:07;1.33;;;1.10;;
5133;SDS011;2585;48.696;10.066;2022-07-01T14:27:34;3.97;;;1.80;;
5133;SDS011;2585;48.696;10.066;2022-07-01T14:30:02;1.40;;;1.10;;
5133;SDS011;2585;48.696;10.066;2022-07-01T14:32:30;3.40;;;1.30;;
5133;SDS011;2585;48.696;10.066;2022-07-01T14:34:57;1.00;;;0.90;;
5133;SDS011;2585;48.696;10.066;2022-07-01T14:37:24;4.43;;;1.23;;
5133;SDS011;2585;48.696;10.066;2022-07-01T14:39:51;1.67;;;1.00;;
5133;SDS011;2585;48.696;10.066;2022-07-01T14:42:23;2.77;;;1.27;;
5133;SDS011;2585;48.696;10.066;2022-07-01T14:44:52;3.57;;;1.33;;
5133;SDS011;2585;48.696;10.066;2022-07-01T14:47:22;4.63;;;1.40;;
5133;SDS011;2585;48.696;10.066;2022-07-01T14:49:49;2.90;;;1.37;;
5133;SDS011;2585;48.696;10.066;2022-07-01T14:52:17;1.30;;;1.20;;
5133;SDS011;2585;48.696;10.066;2022-07-01T14:54:45;1.57;;;1.13;;
5133;SDS011;2585;48.696;10.066;2022-07-01T14:57:12;1.60;;;1.13;;
5133;SDS011;2585;48.696;10.066;2022-07-01T14:59:39;2.60;;;1.37;;
5133;SDS011;2585;48.696;10.066;2022-07-01T15:02:06;1.30;;;1.20;;
5133;SDS011;2585;48.696;10.066;2022-07-01T15:04:35;2.20;;;1.30;;
5133;SDS011;2585;48.696;10.066;2022-07-01T15:07:03;1.53;;;1.00;;
5133;SDS011;2585;48.696;10.066;2022-07-01T15:09:30;1.53;;;1.07;;
5133;SDS011;2585;48.696;10.066;2022-07-01T15:11:57;1.17;;;1.07;;
5133;SDS011;2585;48.696;10.066;2022-07-01T15:14:24;4.20;;;1.30;;
5133;SDS011;2585;48.696;10.066;2022-07-01T15:16:52;1.93;;;1.60;;
5133;SDS011;2585;48.696;10.066;2022-07-01T15:19:19;1.93;;;1.17;;
5133;SDS011;2585;48.696;10.066;2022-07-01T15:21:46;1.60;;;1.10;;
5133;SDS011;2585;48.696;10.066;2022-07-01T15:24:19;2.37;;;1.40;;
5133;SDS011;2585;48.696;10.066;2022-07-01T15:26:46;3.10;;;1.30;;
5133;SDS011;2585;48.696;10.066;2022-07-01T15:29:13;2.20;;;1.40;;
5133;SDS011;2585;48.696;10.066;2022-07-01T15:31:40;2.37;;;1.10;;
5133;SDS011;2585;48.696;10.066;2022-07-01T15:34:16;1.73;;;1.13;;
5133;SDS011;2585;48.696;10.066;2022-07-01T15:36:43;1.23;;;1.13;;
5133;SDS011;2585;48.696;10.066;2022-07-01T15:39:11;1.60;;;1.20;;
5133;SDS011;2585;48.696;10.066;2022-07-01T15:41:38;1.10;;;1.00;;
5133;SDS011;2585;48.696;10.066;2022-07-01T15:44:06;1.40;;;1.30;;
5133;SDS011;2585;48.696;10.066;2022-07-01T15:46:33;2.20;;;1.43;;
5133;SDS011;2585;48.696;10.066;2022-07-01T15:49:01;3.23;;;1.40;;
5133;SDS011;2585;48.696;10.066;2022-07-01T15:51:33;4.10;;;1.40;;
5133;SDS011;2585;48.696;10.066;2022-07-01T15:54:03;1.60;;;1.40;;
5133;SDS011;2585;48.696;10.066;2022-07-01T15:56:30;1.77;;;1.30;;
5133;SDS011;2585;48.696;10.066;2022-07-01T15:58:57;2.70;;;1.23;;